createdAt,value
2019-04-21T00:01:12.652Z,44.00
2019-04-21T00:03:48.629Z,44.20
2019-04-21T00:06:36.736Z,44.70
2019-04-21T00:09:14.636Z,44.90
2019-04-21T00:11:39.096Z,44.90
2019-04-21T00:13:56.159Z,44.60
2019-04-21T00:16:19.216Z,44.00
2019-04-21T00:19:07.131Z,44.50
2019-04-21T00:21:39.441Z,44.70
2019-04-21T00:24:23.897Z,44.80
2019-04-21T00:26:59.560Z,45.00
2019-04-21T00:29:34.261Z,45.10
2019-04-21T00:31:58.984Z,45.10
2019-04-21T00:34:15.326Z,45.10
2019-04-21T00:36:56.145Z,45.00
2019-04-21T00:39:43.952Z,45.00
2019-04-21T00:42:08.625Z,45.10
2019-04-21T00:44:27.490Z,45.50
2019-04-21T00:47:04.126Z,45.40
2019-04-21T00:49:35.780Z,45.40
2019-04-21T00:55:18.126Z,45.50
2019-04-21T00:57:38.877Z,46.20
2019-04-21T01:00:06.959Z,45.80
2019-04-21T01:02:43.651Z,45.80
2019-04-21T01:05:10.845Z,46.10
2019-04-21T01:07:37.286Z,46.20
2019-04-21T01:09:59.210Z,46.20
2019-04-21T01:12:37.957Z,46.20
2019-04-21T01:15:11.050Z,46.10
2019-04-21T01:17:42.953Z,46.20
2019-04-21T01:20:04.840Z,46.30
2019-04-21T01:22:18.081Z,46.50
2019-04-21T01:24:57.960Z,46.60
2019-04-21T01:27:39.751Z,46.80
2019-04-21T01:30:12.871Z,46.70
2019-04-21T01:32:42.434Z,46.90
2019-04-21T01:35:13.313Z,47.30
2019-04-21T01:37:43.808Z,47.40
2019-04-21T01:40:16.311Z,47.50
2019-04-21T01:42:45.510Z,47.50
2019-04-21T01:45:09.454Z,47.30
2019-04-21T01:47:41.907Z,47.50
2019-04-21T01:50:02.825Z,47.90
2019-04-21T01:52:50.214Z,47.90
2019-04-21T01:55:24.987Z,48.50
2019-04-21T01:57:59.364Z,48.50
2019-04-21T02:00:51.878Z,48.20
2019-04-21T02:03:48.397Z,48.10
2019-04-21T02:06:04.450Z,47.90
2019-04-21T02:08:28.715Z,47.90
2019-04-21T02:11:05.202Z,47.80
2019-04-21T02:13:27.569Z,47.70
2019-04-21T02:16:07.952Z,47.80
2019-04-21T02:18:33.450Z,48.00
2019-04-21T02:20:55.425Z,48.90
2019-04-21T02:23:38.128Z,49.30
2019-04-21T02:26:10.102Z,49.70
2019-04-21T02:28:42.421Z,49.50
2019-04-21T02:31:22.633Z,49.40
2019-04-21T02:33:54.321Z,49.30
2019-04-21T02:36:39.603Z,49.90
2019-04-21T02:39:00.694Z,50.50
2019-04-21T02:41:15.975Z,50.70
2019-04-21T02:43:54.302Z,50.80
2019-04-21T02:46:22.328Z,50.90
2019-04-21T02:48:56.400Z,50.80
2019-04-21T02:51:28.212Z,50.70
2019-04-21T02:54:24.454Z,51.00
2019-04-21T02:56:28.394Z,50.80
2019-04-21T02:59:10.850Z,51.40
2019-04-21T03:04:42.651Z,50.90
2019-04-21T03:09:53.485Z,51.00
2019-04-21T03:15:11.951Z,51.00
2019-04-21T03:22:26.486Z,51.30
2019-04-21T03:27:40.677Z,51.70
2019-04-21T03:29:59.410Z,51.40
2019-04-21T03:35:34.521Z,51.50
2019-04-21T03:37:33.411Z,51.30
2019-04-21T03:40:16.748Z,51.30
2019-04-21T03:45:04.727Z,51.00
2019-04-21T03:50:13.426Z,51.10
2019-04-21T03:52:48.245Z,51.70
2019-04-21T04:00:59.507Z,52.50
2019-04-21T04:03:33.353Z,52.80
2019-04-21T04:11:29.127Z,53.70
2019-04-21T04:13:57.946Z,53.80
2019-04-21T04:16:25.367Z,53.80
2019-04-21T04:18:53.098Z,54.10
2019-04-21T04:21:28.689Z,54.10
2019-04-21T04:26:31.601Z,54.60
2019-04-21T04:28:56.338Z,54.70
2019-04-21T04:31:35.457Z,54.50
2019-04-21T04:36:47.801Z,54.70
2019-04-21T04:42:31.310Z,54.70
2019-04-21T04:45:08.181Z,55.10
2019-04-21T04:49:51.943Z,54.40
2019-04-21T04:57:41.999Z,54.70
2019-04-21T05:02:33.650Z,55.50
2019-04-21T05:07:33.462Z,56.00
2019-04-21T05:10:00.909Z,55.70
2019-04-21T05:12:29.249Z,55.90
2019-04-21T05:15:10.115Z,56.30
2019-04-21T05:17:38.208Z,56.60
2019-04-21T05:20:10.345Z,56.60
2019-04-21T05:22:31.148Z,57.20
2019-04-21T05:24:53.887Z,57.50
2019-04-21T05:27:52.602Z,57.50
2019-04-21T05:30:49.004Z,57.70
2019-04-21T05:33:36.469Z,57.80
2019-04-21T05:36:35.298Z,58.30
2019-04-21T05:39:10.432Z,58.00
2019-04-21T05:41:34.846Z,57.20
2019-04-21T05:44:19.397Z,57.20
2019-04-21T05:46:49.407Z,56.90
2019-04-21T05:49:33.762Z,55.50
2019-04-21T05:52:05.519Z,55.40
2019-04-21T05:54:45.710Z,55.00
2019-04-21T05:57:10.108Z,54.70
2019-04-21T05:59:45.374Z,54.20
2019-04-21T06:07:24.038Z,53.90
2019-04-21T06:09:52.356Z,53.90
2019-04-21T06:12:16.124Z,54.10
2019-04-21T06:17:23.670Z,54.10
2019-04-21T06:22:19.548Z,53.40
2019-04-21T06:27:27.987Z,52.40
2019-04-21T06:29:54.715Z,52.00
2019-04-21T06:32:38.501Z,51.50
2019-04-21T06:42:27.039Z,51.00
2019-04-21T06:45:10.337Z,50.80
2019-04-21T06:47:39.185Z,50.40
2019-04-21T06:50:00.422Z,50.70
2019-04-21T06:52:47.619Z,49.90
2019-04-21T06:55:12.553Z,50.00
2019-04-21T06:57:35.002Z,50.30
2019-04-21T06:59:59.980Z,50.10
2019-04-21T07:02:43.743Z,49.80
2019-04-21T07:05:09.110Z,48.50
2019-04-21T07:07:35.610Z,48.90
2019-04-21T07:10:10.766Z,48.90
2019-04-21T07:12:33.633Z,49.80
2019-04-21T07:15:09.986Z,49.70
2019-04-21T07:20:15.909Z,49.00
2019-04-21T07:22:44.676Z,48.50
2019-04-21T07:25:28.615Z,48.30
2019-04-21T07:27:42.778Z,48.70
2019-04-21T07:30:17.617Z,47.40
2019-04-21T07:32:49.793Z,46.80
2019-04-21T07:35:17.173Z,47.20
2019-04-21T07:37:52.373Z,46.80
2019-04-21T07:40:09.121Z,45.90
2019-04-21T07:42:41.211Z,46.00
2019-04-21T07:45:11.711Z,46.40
2019-04-21T07:47:55.317Z,46.10
2019-04-21T07:50:36.630Z,45.30
2019-04-21T07:53:14.459Z,45.70
2019-04-21T07:58:13.033Z,47.10
2019-04-21T08:00:49.541Z,47.30
2019-04-21T08:03:13.759Z,46.40
2019-04-21T08:05:50.614Z,46.00
2019-04-21T08:08:05.184Z,45.70
2019-04-21T08:10:40.570Z,45.20
2019-04-21T08:13:25.282Z,46.30
2019-04-21T08:15:44.259Z,46.20
2019-04-21T08:18:21.005Z,44.90
2019-04-21T08:20:49.179Z,44.80
2019-04-21T08:23:18.627Z,45.40
2019-04-21T08:26:05.539Z,44.40
2019-04-21T08:28:20.769Z,44.90
2019-04-21T08:30:51.662Z,43.90
2019-04-21T08:36:13.187Z,43.90
2019-04-21T08:38:21.484Z,42.90
2019-04-21T08:40:57.548Z,44.20
2019-04-21T08:43:37.058Z,43.40
2019-04-21T08:45:52.960Z,43.20
2019-04-21T08:48:29.115Z,45.10
2019-04-21T08:51:08.295Z,43.80
2019-04-21T08:53:48.967Z,45.70
2019-04-21T08:56:12.302Z,43.90
2019-04-21T08:58:59.055Z,44.40
2019-04-21T09:01:42.938Z,44.10
2019-04-21T09:04:12.806Z,44.70
2019-04-21T09:07:04.844Z,44.30
2019-04-21T09:09:16.806Z,43.30
2019-04-21T09:11:52.323Z,43.10
2019-04-21T09:14:20.666Z,43.20
2019-04-21T09:16:44.345Z,45.10
2019-04-21T09:19:24.354Z,44.50
2019-04-21T09:21:52.940Z,44.10
2019-04-21T09:24:24.723Z,42.20
2019-04-21T09:26:46.630Z,40.20
2019-04-21T09:29:15.035Z,41.00
2019-04-21T09:31:39.200Z,41.10
2019-04-21T09:34:06.435Z,40.80
2019-04-21T09:36:41.291Z,40.00
2019-04-21T09:39:15.139Z,40.40
2019-04-21T09:41:41.068Z,40.50
2019-04-21T09:44:20.020Z,38.50
2019-04-21T09:46:49.744Z,38.80
2019-04-21T09:49:14.770Z,38.80
2019-04-21T09:51:43.760Z,37.70
2019-04-21T09:54:20.728Z,38.80
2019-04-21T09:56:52.375Z,38.50
2019-04-21T09:59:23.769Z,37.40
2019-04-21T10:02:00.983Z,39.00
2019-04-21T10:04:16.530Z,37.30
2019-04-21T10:06:45.975Z,36.90
2019-04-21T10:09:18.372Z,37.40
2019-04-21T10:11:46.280Z,38.30
2019-04-21T10:14:15.090Z,33.80
2019-04-21T10:17:13.168Z,35.20
2019-04-21T10:19:42.631Z,34.60
2019-04-21T10:22:12.622Z,34.20
2019-04-21T10:24:42.477Z,34.40
2019-04-21T10:27:13.274Z,34.10
2019-04-21T10:29:44.819Z,34.10
2019-04-21T10:32:13.636Z,31.80
2019-04-21T10:34:43.291Z,32.10
2019-04-21T10:37:13.308Z,31.90
2019-04-21T10:39:42.766Z,32.50
2019-04-21T10:42:13.085Z,31.50
2019-04-21T10:44:43.153Z,33.40
2019-04-21T10:47:41.044Z,32.30
2019-04-21T10:50:16.154Z,32.90
2019-04-21T10:53:02.900Z,32.20
2019-04-21T10:55:53.506Z,32.50
2019-04-21T10:58:14.609Z,32.40
2019-04-21T11:00:44.141Z,31.60
2019-04-21T11:03:44.757Z,32.40
2019-04-21T11:06:30.805Z,31.60
2019-04-21T11:08:59.953Z,32.50
2019-04-21T11:11:30.170Z,33.90
2019-04-21T11:14:00.786Z,30.80
2019-04-21T11:16:51.531Z,31.30
2019-04-21T11:19:50.797Z,29.40
2019-04-21T11:22:28.670Z,29.30
2019-04-21T11:24:58.927Z,29.30
2019-04-21T11:27:31.481Z,29.20
2019-04-21T11:30:02.330Z,30.10
2019-04-21T11:32:42.064Z,30.10
2019-04-21T11:35:07.256Z,29.60
2019-04-21T11:37:34.750Z,29.50
2019-04-21T11:40:10.531Z,29.50
2019-04-21T11:42:39.789Z,30.00
2019-04-21T11:45:10.495Z,31.30
2019-04-21T11:47:45.982Z,29.60
2019-04-21T11:50:17.179Z,29.50
2019-04-21T11:52:53.052Z,29.30
2019-04-21T11:55:33.631Z,30.50
2019-04-21T11:57:54.510Z,30.00
2019-04-21T12:00:24.829Z,31.60
2019-04-21T12:02:53.615Z,31.40
2019-04-21T12:05:23.663Z,30.50
2019-04-21T12:07:58.652Z,32.20
2019-04-21T12:10:36.043Z,30.90
2019-04-21T12:13:07.428Z,30.80
2019-04-21T12:15:40.899Z,30.40
2019-04-21T12:18:10.467Z,30.60
2019-04-21T12:20:40.792Z,31.00
2019-04-21T12:23:14.210Z,32.70
2019-04-21T12:25:47.457Z,32.20
2019-04-21T12:28:17.409Z,30.00
2019-04-21T12:30:49.509Z,29.50
2019-04-21T12:33:29.877Z,31.00
2019-04-21T12:35:59.905Z,30.70
2019-04-21T12:38:38.773Z,31.30
2019-04-21T12:41:00.417Z,30.40
2019-04-21T12:43:30.653Z,31.40
2019-04-21T12:46:00.090Z,31.70
2019-04-21T12:48:31.767Z,30.00
2019-04-21T12:51:03.805Z,31.00
2019-04-21T12:53:31.924Z,31.60
2019-04-21T12:56:02.489Z,31.70
2019-04-21T12:58:33.188Z,32.50
2019-04-21T13:01:03.026Z,31.50
2019-04-21T13:03:32.215Z,32.20
2019-04-21T13:06:01.369Z,31.70
2019-04-21T13:08:43.602Z,30.70
2019-04-21T13:11:02.271Z,29.60
2019-04-21T13:13:33.721Z,29.90
2019-04-21T13:16:03.257Z,30.10
2019-04-21T13:18:33.249Z,29.60
2019-04-21T13:21:05.928Z,30.30
2019-04-21T13:23:41.158Z,30.10
2019-04-21T13:26:27.698Z,30.00
2019-04-21T13:28:48.127Z,29.80
2019-04-21T13:31:18.237Z,30.80
2019-04-21T13:33:48.109Z,29.60
2019-04-21T13:36:18.128Z,28.90
2019-04-21T13:39:39.614Z,29.20
2019-04-21T13:41:53.250Z,28.70
2019-04-21T13:44:13.332Z,30.40
2019-04-21T13:46:47.176Z,29.00
2019-04-21T13:49:17.229Z,29.00
2019-04-21T13:51:47.997Z,29.10
2019-04-21T13:54:18.061Z,28.60
2019-04-21T13:56:47.305Z,29.20
2019-04-21T13:59:18.344Z,30.80
2019-04-21T14:01:47.854Z,31.50
2019-04-21T14:04:17.873Z,30.00
2019-04-21T14:06:48.015Z,29.50
2019-04-21T14:10:29.243Z,29.30
2019-04-21T14:13:32.258Z,29.00
2019-04-21T14:15:58.166Z,29.50
2019-04-21T14:18:26.926Z,28.90
2019-04-21T14:20:55.683Z,28.20
2019-04-21T14:23:32.532Z,27.90
2019-04-21T14:25:55.733Z,27.70
2019-04-21T14:28:35.070Z,28.60
2019-04-21T14:31:06.174Z,28.10
2019-04-21T14:33:38.676Z,28.40
2019-04-21T14:36:36.931Z,26.90
2019-04-21T14:38:58.699Z,26.90
2019-04-21T14:41:28.487Z,27.10
2019-04-21T14:44:06.882Z,27.00
2019-04-21T14:47:05.010Z,26.80
2019-04-21T14:49:53.298Z,27.10
2019-04-21T14:52:34.929Z,26.70
2019-04-21T14:55:23.039Z,26.80
2019-04-21T14:57:51.807Z,27.20
2019-04-21T15:00:22.638Z,26.60
2019-04-21T15:02:53.757Z,27.00
2019-04-21T15:05:47.305Z,26.80
2019-04-21T15:08:17.290Z,27.10
2019-04-21T15:10:47.169Z,26.90
2019-04-21T15:13:17.690Z,27.80
2019-04-21T15:15:47.920Z,27.50
2019-04-21T15:18:18.567Z,27.30
2019-04-21T15:20:50.632Z,27.40
2019-04-21T15:23:20.970Z,28.20
2019-04-21T15:25:52.286Z,27.90
2019-04-21T15:32:42.266Z,26.10
2019-04-21T15:35:09.181Z,27.30
2019-04-21T15:37:39.946Z,26.70
2019-04-21T15:40:19.341Z,26.80
2019-04-21T15:42:44.262Z,27.10
2019-04-21T15:45:14.523Z,26.80
2019-04-21T15:55:46.726Z,26.10
2019-04-21T15:58:48.392Z,27.00
2019-04-21T16:01:36.586Z,27.20
2019-04-21T16:04:18.826Z,28.20
2019-04-21T16:06:57.553Z,28.90
2019-04-21T16:09:28.908Z,28.80
2019-04-21T16:11:57.927Z,28.40
2019-04-21T16:14:29.092Z,28.70
2019-04-21T16:16:59.161Z,29.00
2019-04-21T16:19:48.093Z,29.40
2019-04-21T16:22:12.624Z,29.40
2019-04-21T16:24:44.276Z,28.90
2019-04-21T16:27:13.509Z,28.40
2019-04-21T16:29:43.882Z,28.20
2019-04-21T16:32:14.672Z,29.10
2019-04-21T16:34:50.983Z,28.80
2019-04-21T16:37:13.956Z,28.90
2019-04-21T16:39:43.318Z,29.20
2019-04-21T16:42:14.132Z,29.60
2019-04-21T16:44:43.045Z,29.60
2019-04-21T16:59:36.761Z,29.90
2019-04-21T17:02:50.399Z,30.90
2019-04-21T17:06:17.365Z,30.10
2019-04-21T17:17:45.387Z,30.00
2019-04-21T17:21:00.935Z,30.00
2019-04-21T17:23:52.459Z,30.20
2019-04-21T17:29:43.243Z,30.60
2019-04-21T17:35:44.827Z,30.40
2019-04-21T17:50:43.493Z,31.40
2019-04-21T17:54:29.225Z,31.30
2019-04-21T18:00:57.535Z,31.60
2019-04-21T18:03:14.960Z,31.90
2019-04-21T18:06:10.490Z,32.00
2019-04-21T18:13:13.671Z,32.40
2019-04-21T18:20:15.208Z,33.30
2019-04-21T18:23:42.090Z,33.40
2019-04-21T18:26:35.460Z,33.70
2019-04-21T18:29:11.750Z,33.60
2019-04-21T18:32:19.732Z,33.70
2019-04-21T18:35:47.090Z,33.80
2019-04-21T18:38:54.814Z,34.60
2019-04-21T18:41:17.836Z,34.40
2019-04-21T18:45:28.188Z,34.10
2019-04-21T18:48:02.677Z,34.00
2019-04-21T18:51:12.362Z,34.20
2019-04-21T18:54:34.038Z,33.80
2019-04-21T18:56:57.573Z,34.10
2019-04-21T18:59:40.260Z,34.20
2019-04-21T19:02:38.465Z,34.20
2019-04-21T19:05:15.141Z,34.40
2019-04-21T19:08:03.041Z,34.50
2019-04-21T19:11:02.205Z,34.70
2019-04-21T19:13:51.191Z,34.70
2019-04-21T19:17:04.429Z,35.10
2019-04-21T19:22:41.677Z,35.20
2019-04-21T19:25:47.379Z,35.40
2019-04-21T19:28:42.142Z,35.60
2019-04-21T19:31:39.917Z,35.70
2019-04-21T19:33:49.390Z,35.90
2019-04-21T19:36:17.350Z,35.80
2019-04-21T19:39:07.561Z,36.70
2019-04-21T19:41:58.608Z,36.00
2019-04-21T19:44:43.390Z,36.10
2019-04-21T19:47:59.727Z,35.90
2019-04-21T19:51:04.241Z,35.70
2019-04-21T19:53:37.125Z,35.70
2019-04-21T19:56:03.791Z,35.20
2019-04-21T19:58:36.937Z,35.70
2019-04-21T20:01:03.624Z,35.90
2019-04-21T20:03:36.693Z,35.80
2019-04-21T20:06:16.428Z,35.80
2019-04-21T20:08:55.114Z,35.80
2019-04-21T20:11:24.133Z,36.10
2019-04-21T20:14:18.351Z,36.30
2019-04-21T20:16:33.960Z,36.10
2019-04-21T20:18:45.634Z,36.40
2019-04-21T20:21:10.114Z,36.50
2019-04-21T20:23:41.148Z,36.40
2019-04-21T20:26:11.711Z,36.50
2019-04-21T20:28:48.901Z,36.70
2019-04-21T20:31:23.660Z,36.50
2019-04-21T20:34:02.289Z,36.70
2019-04-21T20:36:33.211Z,36.70
2019-04-21T20:38:51.637Z,37.00
2019-04-21T20:41:29.803Z,37.10
2019-04-21T20:44:01.041Z,37.20
2019-04-21T20:46:36.591Z,37.40
2019-04-21T20:48:59.992Z,37.50
2019-04-21T20:51:36.253Z,37.70
2019-04-21T20:54:02.941Z,37.80
2019-04-21T20:56:37.505Z,38.00
2019-04-21T20:59:07.726Z,38.20
2019-04-21T21:01:34.851Z,38.20
2019-04-21T21:04:01.783Z,38.30
2019-04-21T21:06:36.100Z,38.50
2019-04-21T21:09:05.726Z,38.50
2019-04-21T21:11:36.712Z,38.50
2019-04-21T21:14:11.760Z,38.50
2019-04-21T21:16:47.608Z,38.70
2019-04-21T21:19:18.747Z,38.70
2019-04-21T21:21:39.963Z,38.70
2019-04-21T21:24:10.155Z,39.20
2019-04-21T21:26:43.954Z,39.40
2019-04-21T21:29:06.711Z,39.70
2019-04-21T21:31:41.771Z,39.60
2019-04-21T21:34:17.580Z,39.60
2019-04-21T21:36:47.752Z,39.70
2019-04-21T21:39:15.445Z,39.80
2019-04-21T21:41:34.512Z,39.70
2019-04-21T21:44:05.827Z,39.90
2019-04-21T21:46:45.607Z,39.90
2019-04-21T21:49:07.460Z,40.00
2019-04-21T21:51:42.991Z,39.80
2019-04-21T21:54:03.298Z,39.70
2019-04-21T21:56:32.350Z,39.90
2019-04-21T21:59:09.860Z,40.00
2019-04-21T22:01:38.879Z,39.60
2019-04-21T22:04:11.050Z,40.00
2019-04-21T22:06:42.001Z,40.20
2019-04-21T22:09:08.486Z,40.10
2019-04-21T22:11:38.046Z,40.30
2019-04-21T22:14:10.113Z,40.40
2019-04-21T22:16:47.469Z,40.40
2019-04-21T22:19:25.712Z,40.20
2019-04-21T22:21:55.113Z,40.00
2019-04-21T22:24:23.718Z,40.30
2019-04-21T22:26:41.063Z,40.60
2019-04-21T22:29:09.900Z,40.40
2019-04-21T22:31:39.681Z,40.50
2019-04-21T22:34:12.693Z,40.40
2019-04-21T22:36:48.859Z,40.40
2019-04-21T22:39:28.279Z,40.70
2019-04-21T22:41:46.668Z,40.80
2019-04-21T22:44:18.659Z,40.70
2019-04-21T22:47:00.052Z,40.70
2019-04-21T22:49:19.968Z,40.80
2019-04-21T22:51:51.828Z,41.00
2019-04-21T22:54:25.707Z,41.30
2019-04-21T22:56:58.628Z,41.40
2019-04-21T22:59:22.930Z,41.60
2019-04-21T23:01:53.678Z,41.40
2019-04-21T23:04:25.415Z,41.30
2019-04-21T23:06:56.628Z,41.10
2019-04-21T23:09:24.555Z,41.10
2019-04-21T23:11:56.638Z,41.30
2019-04-21T23:14:25.760Z,41.30
2019-04-21T23:17:14.942Z,41.40
2019-04-21T23:19:42.293Z,41.40
2019-04-21T23:22:16.218Z,41.60
2019-04-21T23:24:51.599Z,41.70
2019-04-21T23:27:15.411Z,41.90
2019-04-21T23:32:15.842Z,42.30
2019-04-21T23:34:36.709Z,42.10
2019-04-21T23:37:11.885Z,42.20
2019-04-21T23:39:37.309Z,42.40
2019-04-21T23:42:06.455Z,42.30
2019-04-21T23:44:41.719Z,42.20
2019-04-21T23:47:09.999Z,42.10
2019-04-21T23:49:49.960Z,42.20
2019-04-21T23:52:10.935Z,42.20
2019-04-21T23:54:38.390Z,42.30
2019-04-21T23:57:14.474Z,42.50
2019-04-21T23:59:43.859Z,42.50
